Time;durP1;ratioP1;P1;durP2;ratioP2;P2;SDS_P1;SDS_P2;PMS_P1;PMS_P2;Temp;Humidity;BMP_temperature;BMP_pressure;BME280_temperature;BME280_humidity;BME280_pressure;Samples;Min_cycle;Max_cycle;Signal;HPM_P1;HPM_P2
2022/06/05 00:01:45;;;;;;;;;17.20;17.20;;;;;20.23;70.30;100775.16;4995394;28;45434;-55
2022/06/05 00:04:26;;;;;;;;;15.80;15.80;;;;;20.30;70.03;100786.84;5009403;28;45956;-57
2022/06/05 00:07:15;;;;;;;;;15.60;15.60;;;;;20.36;70.36;100799.69;4996123;28;45362;-52
2022/06/05 00:09:52;;;;;;;;;21.80;18.60;;;;;20.26;69.81;100769.00;4996200;28;45373;-54
2022/06/05 00:12:19;;;;;;;;;15.00;14.60;;;;;20.41;69.78;100780.19;5028247;28;45516;-55
2022/06/05 00:14:45;;;;;;;;;14.60;14.60;;;;;20.46;69.59;100773.78;4996110;28;45817;-56
2022/06/05 00:17:19;;;;;;;;;13.75;13.75;;;;;20.47;69.48;100775.44;4994787;28;45300;-55
2022/06/05 00:19:46;;;;;;;;;16.00;14.40;;;;;20.47;68.60;100782.97;5028337;28;45394;-55
2022/06/05 00:22:12;;;;;;;;;18.60;14.60;;;;;20.50;68.86;100783.25;4995854;28;45310;-58
2022/06/05 00:24:37;;;;;;;;;19.75;18.75;;;;;20.34;68.67;100762.91;4996056;28;46625;-58
2022/06/05 00:27:08;;;;;;;;;19.00;18.00;;;;;20.54;68.73;100801.09;4996122;28;45363;-52
2022/06/05 00:30:03;;;;;;;;;18.00;15.20;;;;;20.38;68.52;100774.34;5015696;28;45506;-54
2022/06/05 00:32:37;;;;;;;;;9.40;9.40;;;;;20.40;68.97;100767.38;4967535;28;45494;-55
2022/06/05 00:35:07;;;;;;;;;16.00;15.00;;;;;20.51;68.69;100778.50;4975892;28;45400;-58
2022/06/05 00:37:45;;;;;;;;;19.40;17.60;;;;;20.36;68.69;100752.31;4975181;28;45352;-54
2022/06/05 00:40:18;;;;;;;;;12.80;12.80;;;;;20.52;68.74;100775.44;4975999;28;45650;-58
2022/06/05 00:42:43;;;;;;;;;15.20;13.80;;;;;20.46;68.82;100762.63;4976793;28;45423;-57
2022/06/05 00:45:10;;;;;;;;;19.00;16.25;;;;;20.43;69.01;100750.06;4945179;28;45464;-54
2022/06/05 00:47:36;;;;;;;;;16.20;16.00;;;;;20.50;69.40;100757.31;4974942;28;45410;-53
2022/06/05 00:50:17;;;;;;;;;16.50;16.50;;;;;20.47;69.27;100755.94;4975144;28;45293;-55
2022/06/05 00:52:48;;;;;;;;;18.00;15.00;;;;;20.41;69.55;100752.31;4958662;28;45592;-54
2022/06/05 00:55:14;;;;;;;;;19.00;15.20;;;;;20.24;69.87;100723.88;4975846;28;45762;-53
2022/06/05 00:57:39;;;;;;;;;15.20;14.60;;;;;20.39;69.88;100748.13;4976101;28;45379;-54
2022/06/05 01:00:13;;;;;;;;;17.00;15.50;;;;;20.38;70.12;100746.47;4958776;28;45759;-56
2022/06/05 01:02:42;;;;;;;;;19.20;16.20;;;;;20.36;70.50;100749.53;4974737;28;45453;-57
2022/06/05 01:05:09;;;;;;;;;13.60;12.80;;;;;20.35;70.61;100753.44;4974399;28;46702;-57
2022/06/05 01:07:34;;;;;;;;;17.00;15.20;;;;;20.31;70.59;100735.59;4974384;28;45345;-52
2022/06/05 01:10:00;;;;;;;;;16.50;14.25;;;;;20.33;70.91;100744.50;4977967;28;45389;-55
2022/06/05 01:12:31;;;;;;;;;16.75;15.75;;;;;20.25;70.80;100726.41;4979410;28;45414;-56
2022/06/05 01:15:38;;;;;;;;;17.60;16.80;;;;;20.38;70.54;100740.88;4979084;28;46580;-56
2022/06/05 01:18:16;;;;;;;;;19.20;17.40;;;;;20.38;70.52;100733.34;4963231;28;45576;-56
2022/06/05 01:21:00;;;;;;;;;16.00;15.60;;;;;20.39;70.88;100711.91;4977950;28;45947;-54
2022/06/05 01:23:35;;;;;;;;;16.20;12.60;;;;;20.39;70.35;100712.72;4979349;28;45339;-55
2022/06/05 01:26:11;;;;;;;;;14.40;14.40;;;;;20.32;70.62;100706.59;4979181;28;45700;-57
2022/06/05 01:28:39;;;;;;;;;17.80;16.60;;;;;20.34;70.63;100701.59;4977842;28;45380;-54
2022/06/05 01:31:08;;;;;;;;;22.80;19.20;;;;;20.36;70.56;100698.50;4980507;28;45388;-52
2022/06/05 01:33:34;;;;;;;;;18.00;16.80;;;;;20.21;70.96;100666.75;4997631;28;45420;-53
2022/06/05 01:36:05;;;;;;;;;15.00;15.00;;;;;20.17;71.38;100677.63;5030269;28;45647;-54
2022/06/05 01:38:41;;;;;;;;;16.40;15.60;;;;;20.05;71.08;100654.78;4998428;28;45485;-57
2022/06/05 01:41:19;;;;;;;;;16.40;15.60;;;;;20.26;71.03;100674.25;5028506;28;45422;-55
2022/06/05 01:43:49;;;;;;;;;17.00;16.80;;;;;20.17;71.21;100655.34;5013297;28;45504;-55
2022/06/05 01:46:16;;;;;;;;;16.00;15.00;;;;;20.27;71.35;100662.03;5013721;28;45857;-52
2022/06/05 01:48:45;;;;;;;;;20.60;18.60;;;;;20.28;71.25;100664.53;5030249;28;45402;-51
2022/06/05 01:51:15;;;;;;;;;18.00;16.60;;;;;20.20;71.12;100651.16;5013390;28;45425;-51
2022/06/05 01:53:45;;;;;;;;;16.80;15.60;;;;;20.26;71.15;100649.19;5013283;28;45405;-55
2022/06/05 01:56:23;;;;;;;;;17.40;16.20;;;;;20.26;70.84;100655.63;4996877;28;46970;-53
2022/06/05 01:59:19;;;;;;;;;16.60;16.00;;;;;20.22;71.21;100650.88;4997934;28;45325;-58
2022/06/05 02:01:47;;;;;;;;;17.00;17.00;;;;;20.02;71.34;100621.91;4955759;28;45781;-54
2022/06/05 02:04:28;;;;;;;;;15.60;15.60;;;;;20.15;71.31;100646.44;4975195;28;45310;-56
2022/06/05 02:06:58;;;;;;;;;16.20;15.20;;;;;20.09;71.35;100633.63;4976257;28;46599;-52
2022/06/05 02:09:25;;;;;;;;;18.40;17.80;;;;;20.06;71.69;100623.00;4976488;28;45376;-56
2022/06/05 02:11:51;;;;;;;;;19.40;16.80;;;;;20.08;71.84;100629.16;4975092;28;45269;-55
2022/06/05 02:14:16;;;;;;;;;15.75;15.75;;;;;20.08;71.62;100631.94;4976463;28;45550;-56
2022/06/05 02:16:43;;;;;;;;;21.50;18.50;;;;;20.06;71.25;100623.00;4960583;28;45454;-54
2022/06/05 02:19:09;;;;;;;;;13.80;13.80;;;;;20.04;71.39;100623.31;4943684;28;45414;-56
2022/06/05 02:21:37;;;;;;;;;17.40;17.40;;;;;20.01;71.30;100625.81;4975567;28;45356;-54
2022/06/05 02:24:04;;;;;;;;;22.00;19.40;;;;;20.01;70.81;100623.03;4976978;28;45340;-56
2022/06/05 02:26:29;;;;;;;;;19.00;17.80;;;;;19.99;70.99;100616.88;4978205;28;46158;-51
2022/06/05 02:28:56;;;;;;;;;17.00;16.00;;;;;19.80;70.82;100581.19;4976897;28;45400;-59
2022/06/05 02:31:46;;;;;;;;;16.60;15.60;;;;;20.01;70.93;100612.72;4995352;28;45386;-58
2022/06/05 02:34:12;;;;;;;;;18.40;16.40;;;;;20.02;70.45;100608.00;4997631;28;45338;-51
2022/06/05 02:36:48;;;;;;;;;15.50;14.25;;;;;19.95;69.83;100597.13;4997707;28;45307;-54
2022/06/05 02:39:24;;;;;;;;;15.80;13.40;;;;;19.98;70.08;100604.94;5011377;28;45328;-54
2022/06/05 02:42:27;;;;;;;;;14.80;13.40;;;;;19.90;70.30;100603.50;4997260;28;45414;-55
2022/06/05 02:44:57;;;;;;;;;17.80;14.80;;;;;19.94;70.35;100594.59;4997559;28;45792;-52
2022/06/05 02:47:30;;;;;;;;;13.80;13.80;;;;;19.95;69.99;100593.47;5011715;28;45885;-52
2022/06/05 02:49:59;;;;;;;;;16.00;15.40;;;;;19.84;70.35;100575.94;4995709;28;45316;-52
2022/06/05 02:52:24;;;;;;;;;17.20;15.80;;;;;19.86;70.01;100584.84;5028791;28;45469;-53
2022/06/05 02:55:01;;;;;;;;;16.50;14.25;;;;;19.68;70.30;100559.22;5012552;28;45477;-56
2022/06/05 02:57:27;;;;;;;;;17.20;17.20;;;;;19.83;70.07;100580.66;5027669;28;45510;-56
2022/06/05 02:59:52;;;;;;;;;18.25;14.75;;;;;19.87;69.96;100586.50;4996826;28;45493;-53
2022/06/05 03:05:02;;;;;;;;;13.60;11.80;;;;;19.84;69.88;100589.88;4997261;28;45307;-51
2022/06/05 03:07:27;;;;;;;;;13.50;13.00;;;;;19.87;69.47;100598.50;4996437;28;47758;-52
2022/06/05 03:09:53;;;;;;;;;16.25;14.25;;;;;19.89;69.64;100590.69;4997029;28;45420;-56
2022/06/05 03:12:18;;;;;;;;;13.25;12.50;;;;;19.80;69.73;100597.91;4996832;28;45326;-56
2022/06/05 03:14:44;;;;;;;;;12.00;12.00;;;;;19.81;69.82;100609.91;4997044;28;45540;-56
2022/06/05 03:17:09;;;;;;;;;16.50;16.50;;;;;19.82;70.00;100612.41;4996504;28;45634;-54
2022/06/05 03:19:35;;;;;;;;;19.00;13.75;;;;;19.61;69.86;100584.56;4996849;28;45342;-52
2022/06/05 03:22:00;;;;;;;;;17.00;17.00;;;;;19.66;70.34;100596.78;4969832;28;45395;-56
2022/06/05 03:24:26;;;;;;;;;16.75;15.75;;;;;19.72;69.89;100606.81;4970139;28;45982;-58
2022/06/05 03:26:51;;;;;;;;;15.00;14.00;;;;;19.71;70.10;100611.56;4977188;28;45897;-56
2022/06/05 03:29:17;;;;;;;;;17.25;16.25;;;;;19.62;69.87;100602.94;4976939;28;45470;-53
2022/06/05 03:31:42;;;;;;;;;15.75;13.75;;;;;19.62;70.29;100614.06;4994234;28;45436;-55
2022/06/05 03:34:08;;;;;;;;;17.75;15.00;;;;;19.60;70.15;100593.19;4995638;28;45411;-56
2022/06/05 03:36:34;;;;;;;;;18.50;15.50;;;;;19.62;70.16;100602.09;4996329;28;45396;-56
2022/06/05 03:38:59;;;;;;;;;20.25;18.00;;;;;19.60;70.17;100609.88;5011665;28;45387;-50
2022/06/05 03:41:25;;;;;;;;;22.50;19.50;;;;;19.39;69.91;100567.25;4996559;28;45493;-54
2022/06/05 03:43:50;;;;;;;;;18.50;17.50;;;;;19.57;70.05;100614.06;4996518;28;45490;-58
2022/06/05 03:46:16;;;;;;;;;23.50;18.00;;;;;19.45;70.19;100613.47;4995021;28;45760;-56
2022/06/05 03:48:41;;;;;;;;;18.50;17.25;;;;;19.47;70.38;100634.34;4994918;28;45411;-56
2022/06/05 03:51:14;;;;;;;;;15.50;15.50;;;;;19.37;70.42;100626.81;4996306;28;45389;-56
2022/06/05 03:53:40;;;;;;;;;21.80;19.40;;;;;19.45;70.66;100635.72;4996233;28;45413;-56
2022/06/05 03:56:13;;;;;;;;;17.75;16.75;;;;;19.44;70.55;100629.34;4996139;28;46466;-59
2022/06/05 03:58:39;;;;;;;;;17.60;16.80;;;;;19.33;70.28;100622.06;5011346;28;45574;-56
2022/06/05 04:01:08;;;;;;;;;21.25;19.00;;;;;19.43;70.82;100635.19;4996162;28;45433;-54
2022/06/05 04:03:34;;;;;;;;;16.40;15.60;;;;;19.42;70.61;100633.50;4996460;28;45527;-56
2022/06/05 04:05:59;;;;;;;;;16.25;15.00;;;;;19.40;70.76;100628.22;5010824;28;45452;-56
2022/06/05 04:08:25;;;;;;;;;16.00;14.25;;;;;19.46;70.59;100651.31;4996510;28;45231;-54
2022/06/05 04:10:50;;;;;;;;;12.00;12.00;;;;;19.34;70.29;100630.16;4996064;28;45274;-53
2022/06/05 04:13:16;;;;;;;;;18.50;16.00;;;;;19.49;70.08;100648.81;4996404;28;45452;-54
2022/06/05 04:15:41;;;;;;;;;16.25;16.25;;;;;19.53;70.04;100651.88;4995679;28;46418;-58
2022/06/05 04:18:07;;;;;;;;;18.00;16.75;;;;;19.52;69.92;100641.88;4994362;28;45346;-53
2022/06/05 04:20:33;;;;;;;;;15.00;13.25;;;;;19.59;70.02;100663.88;4994818;28;45324;-52
2022/06/05 04:22:59;;;;;;;;;16.60;16.60;;;;;19.59;69.99;100666.66;4996029;28;45266;-55
2022/06/05 04:25:24;;;;;;;;;17.00;17.00;;;;;19.63;69.96;100671.41;4994715;28;47087;-57
2022/06/05 04:27:51;;;;;;;;;15.00;13.25;;;;;19.68;69.92;100670.56;4973471;28;45615;-54
2022/06/05 04:30:16;;;;;;;;;16.00;15.00;;;;;19.60;69.95;100671.97;4981101;28;45313;-57
2022/06/05 04:32:42;;;;;;;;;13.50;13.50;;;;;19.57;70.02;100683.63;5020670;28;45580;-56
2022/06/05 04:35:08;;;;;;;;;18.00;18.00;;;;;19.48;69.91;100649.13;4995329;28;45593;-52
2022/06/05 04:37:33;;;;;;;;;16.25;12.50;;;;;19.62;70.22;100691.16;4994480;28;45465;-57
2022/06/05 04:39:59;;;;;;;;;17.00;15.00;;;;;19.62;70.06;100680.88;4994193;28;45348;-56
2022/06/05 04:42:24;;;;;;;;;17.00;14.75;;;;;19.67;69.77;100688.41;4995927;28;45347;-55
2022/06/05 04:44:50;;;;;;;;;11.00;11.00;;;;;19.58;69.68;100676.13;5013812;28;46491;-55
2022/06/05 04:47:15;;;;;;;;;15.75;14.00;;;;;19.76;69.64;100699.84;5014242;28;45426;-54
2022/06/05 04:49:41;;;;;;;;;16.00;13.00;;;;;19.80;69.42;100709.28;4999373;28;45638;-55
2022/06/05 04:52:06;;;;;;;;;12.50;11.75;;;;;19.86;69.52;100710.97;4998845;28;45497;-60
2022/06/05 04:54:32;;;;;;;;;13.75;13.00;;;;;19.80;69.33;100709.28;4998843;28;45570;-52
2022/06/05 04:56:57;;;;;;;;;13.75;13.25;;;;;19.66;69.39;100711.78;4998753;28;45459;-53
2022/06/05 04:59:23;;;;;;;;;14.00;13.75;;;;;19.81;69.38;100718.50;4998924;28;45373;-55
2022/06/05 05:01:48;;;;;;;;;12.50;12.00;;;;;19.87;68.99;100715.47;4998979;28;45373;-53
2022/06/05 05:04:14;;;;;;;;;12.75;12.00;;;;;19.71;69.56;100694.25;5030489;28;46701;-55
2022/06/05 05:06:40;;;;;;;;;14.25;13.00;;;;;19.95;69.12;100716.03;4998638;28;45395;-55
2022/06/05 05:09:05;;;;;;;;;13.20;12.60;;;;;19.99;68.99;100717.16;4997454;28;45365;-55
2022/06/05 05:11:31;;;;;;;;;12.75;11.75;;;;;20.02;68.84;100705.47;4999179;28;45627;-55
2022/06/05 05:13:57;;;;;;;;;12.50;12.50;;;;;20.07;69.16;100718.56;4998578;28;45795;-55
2022/06/05 05:16:23;;;;;;;;;16.25;14.25;;;;;20.11;68.69;100711.34;4998430;28;45249;-55
2022/06/05 05:18:48;;;;;;;;;14.20;13.00;;;;;20.01;68.83;100704.63;4999004;28;45228;-54
2022/06/05 05:21:19;;;;;;;;;15.75;15.75;;;;;19.89;69.23;100699.31;4997439;28;45681;-54
2022/06/05 05:23:47;;;;;;;;;15.80;14.60;;;;;19.84;69.28;100690.94;4998589;28;46673;-55
2022/06/05 05:26:12;;;;;;;;;13.20;11.20;;;;;19.95;69.21;100719.66;5029611;28;45405;-56
2022/06/05 05:28:38;;;;;;;;;17.00;14.25;;;;;19.94;68.83;100708.78;4998556;28;45421;-55
2022/06/05 05:31:10;;;;;;;;;9.20;9.20;;;;;19.85;69.25;100714.88;4986216;28;45608;-54
2022/06/05 05:33:37;;;;;;;;;13.40;12.80;;;;;19.91;69.09;100701.81;4958607;28;45921;-55
2022/06/05 05:36:02;;;;;;;;;15.40;14.60;;;;;20.00;68.78;100719.69;4973489;28;45331;-56
2022/06/05 05:38:28;;;;;;;;;12.50;12.50;;;;;20.06;68.57;100728.88;4978519;28;45220;-54
2022/06/05 05:43:38;;;;;;;;;15.00;12.20;;;;;20.25;68.43;100722.75;4978926;28;45824;-53
2022/06/05 05:46:07;;;;;;;;;11.50;11.25;;;;;20.21;67.92;100716.91;4978905;28;45289;-54
2022/06/05 05:48:33;;;;;;;;;14.80;13.40;;;;;20.32;68.31;100728.88;4977552;28;45409;-53
2022/06/05 05:50:58;;;;;;;;;14.00;14.00;;;;;20.37;68.02;100725.25;4979150;28;46083;-53
2022/06/05 05:53:24;;;;;;;;;11.75;11.75;;;;;20.33;67.91;100713.03;4977211;28;45810;-56
2022/06/05 05:55:49;;;;;;;;;11.25;11.25;;;;;20.29;68.02;100698.81;4977497;28;45354;-54
2022/06/05 05:58:15;;;;;;;;;15.50;13.75;;;;;20.50;67.83;100723.88;4978860;28;45430;-57
2022/06/05 06:00:40;;;;;;;;;12.75;12.75;;;;;20.52;67.78;100722.50;4978609;28;45580;-53
2022/06/05 06:03:06;;;;;;;;;19.75;12.75;;;;;20.59;67.21;100724.97;4978539;28;45556;-53
2022/06/05 06:05:31;;;;;;;;;14.75;13.25;;;;;20.59;67.51;100711.88;4978369;28;45395;-56
2022/06/05 06:07:57;;;;;;;;;17.75;16.00;;;;;20.65;67.00;100723.03;4978498;28;45346;-56
2022/06/05 06:10:23;;;;;;;;;17.80;17.80;;;;;20.69;67.27;100719.41;4960970;28;45607;-55
2022/06/05 06:12:48;;;;;;;;;18.00;17.00;;;;;20.57;67.36;100710.50;4977968;28;46120;-56
2022/06/05 06:15:14;;;;;;;;;14.75;14.25;;;;;20.67;67.53;100709.63;4978472;28;45151;-54
2022/06/05 06:17:39;;;;;;;;;15.25;13.50;;;;;20.70;67.27;100712.69;4978230;28;45802;-54
2022/06/05 06:20:05;;;;;;;;;15.75;12.75;;;;;20.75;67.03;100711.03;4978669;28;45323;-57
2022/06/05 06:22:32;;;;;;;;;14.00;11.80;;;;;20.78;66.82;100700.16;4976784;28;45808;-57
2022/06/05 06:24:58;;;;;;;;;14.00;13.00;;;;;20.81;66.34;100704.31;4978273;28;45382;-54
2022/06/05 06:27:23;;;;;;;;;14.00;12.50;;;;;20.79;66.68;100695.38;4977167;28;45376;-52
2022/06/05 06:29:49;;;;;;;;;15.50;13.00;;;;;20.80;66.77;100699.84;4976895;28;45586;-51
2022/06/05 06:32:14;;;;;;;;;12.25;9.50;;;;;20.82;66.73;100701.22;4996710;28;45480;-53
2022/06/05 06:34:40;;;;;;;;;12.00;11.00;;;;;20.81;66.95;100701.53;4997398;28;45473;-57
2022/06/05 06:37:05;;;;;;;;;10.50;8.25;;;;;20.83;66.90;100702.09;4997755;28;45282;-58
2022/06/05 06:39:31;;;;;;;;;11.25;6.75;;;;;20.71;67.06;100682.88;4997612;28;45441;-52
2022/06/05 06:41:56;;;;;;;;;6.50;5.50;;;;;20.84;66.88;100709.34;4997267;28;45374;-55
2022/06/05 06:44:22;;;;;;;;;6.50;5.75;;;;;20.66;67.05;100668.94;4997390;28;45377;-56
2022/06/05 06:46:47;;;;;;;;;6.50;5.00;;;;;20.78;67.42;100686.19;4997241;28;45228;-52
2022/06/05 06:49:13;;;;;;;;;4.75;4.75;;;;;20.79;67.24;100678.66;4997684;28;45318;-55
2022/06/05 06:51:39;;;;;;;;;6.00;6.00;;;;;20.90;67.13;100683.13;4997042;28;45895;-55
2022/06/05 06:54:04;;;;;;;;;5.25;5.25;;;;;20.91;67.18;100687.59;5012147;28;45242;-55
2022/06/05 06:56:30;;;;;;;;;6.50;6.25;;;;;20.95;67.15;100677.53;4996321;28;45299;-56
2022/06/05 06:58:57;;;;;;;;;8.00;5.20;;;;;20.99;67.15;100680.59;4997514;28;45759;-55
2022/06/05 07:01:23;;;;;;;;;8.60;8.20;;;;;20.98;67.54;100679.75;4996896;28;46822;-56
2022/06/05 07:03:48;;;;;;;;;5.75;4.25;;;;;20.98;67.21;100679.75;4996815;28;45748;-54
2022/06/05 07:06:14;;;;;;;;;5.75;5.75;;;;;20.81;67.41;100645.75;4997115;28;45849;-56
2022/06/05 07:08:40;;;;;;;;;10.50;9.25;;;;;21.09;66.86;100677.75;4997341;28;45405;-54
2022/06/05 07:11:07;;;;;;;;;6.00;6.00;;;;;20.91;66.92;100645.75;4996708;28;46707;-56
2022/06/05 07:13:33;;;;;;;;;4.20;4.20;;;;;20.99;67.38;100655.50;4996858;28;45330;-58
2022/06/05 07:15:59;;;;;;;;;8.00;7.20;;;;;21.03;67.23;100673.31;5028207;28;45389;-59
2022/06/05 07:18:25;;;;;;;;;4.00;4.00;;;;;21.04;67.04;100663.84;4995857;28;45289;-55
2022/06/05 07:20:51;;;;;;;;;3.00;2.00;;;;;21.09;67.04;100657.41;5012139;28;47985;-56
2022/06/05 07:23:16;;;;;;;;;6.50;5.75;;;;;21.08;66.91;100658.53;4968228;28;45963;-55
2022/06/05 07:25:51;;;;;;;;;4.25;4.25;;;;;21.19;66.94;100665.72;4968944;28;45961;-54
2022/06/05 07:28:18;;;;;;;;;6.00;6.00;;;;;21.25;66.65;100670.16;4975876;28;45277;-50
2022/06/05 07:30:47;;;;;;;;;6.20;4.20;;;;;21.20;66.31;100670.19;4980564;28;46374;-51
2022/06/05 07:33:13;;;;;;;;;9.20;6.20;;;;;21.06;66.50;100642.06;4995031;28;45291;-58
2022/06/05 07:35:38;;;;;;;;;7.00;5.00;;;;;21.37;66.17;100672.63;4995242;28;45338;-55
2022/06/05 07:38:04;;;;;;;;;9.00;7.25;;;;;21.47;65.76;100665.31;4996150;28;45416;-54
2022/06/05 07:40:29;;;;;;;;;5.25;5.25;;;;;21.55;65.54;100663.88;4996788;28;46517;-56
2022/06/05 07:42:55;;;;;;;;;7.75;7.00;;;;;21.55;65.19;100659.13;4996330;28;45374;-56
2022/06/05 07:45:21;;;;;;;;;8.50;8.50;;;;;21.40;64.32;100641.34;4996580;28;45299;-58
2022/06/05 07:47:46;;;;;;;;;8.25;5.00;;;;;21.61;64.98;100662.72;4996606;28;45291;-56
2022/06/05 07:50:12;;;;;;;;;7.00;6.00;;;;;21.73;64.93;100666.03;4995780;28;46581;-50
2022/06/05 07:55:22;;;;;;;;;6.80;5.60;;;;;21.83;64.35;100670.72;4995997;28;45457;-52
2022/06/05 07:57:48;;;;;;;;;8.75;7.75;;;;;21.93;64.23;100683.78;4996473;28;45350;-51
2022/06/05 08:00:13;;;;;;;;;6.75;6.75;;;;;21.92;63.48;100671.75;4995856;28;45391;-55
2022/06/05 08:02:39;;;;;;;;;8.75;6.75;;;;;22.03;63.71;100671.66;4976736;28;45858;-56
2022/06/05 08:05:05;;;;;;;;;5.50;5.00;;;;;22.07;63.76;100668.03;4972998;28;45472;-52
2022/06/05 08:07:32;;;;;;;;;8.80;7.20;;;;;22.17;63.25;100674.63;4958522;28;45477;-57
2022/06/05 08:09:57;;;;;;;;;5.00;5.00;;;;;22.25;63.08;100671.19;4985707;28;45957;-52
2022/06/05 08:12:24;;;;;;;;;4.75;4.75;;;;;22.26;62.94;100683.22;4974811;28;45429;-54
2022/06/05 08:14:50;;;;;;;;;6.20;4.60;;;;;22.20;63.22;100690.84;4974200;28;45411;-50
2022/06/05 08:17:20;;;;;;;;;7.00;7.00;;;;;22.14;63.22;100675.22;4974722;28;45441;-52
2022/06/05 08:19:46;;;;;;;;;5.60;5.60;;;;;22.21;62.78;100684.13;4974490;28;46516;-56
2022/06/05 08:22:12;;;;;;;;;6.75;6.00;;;;;22.20;63.02;100679.66;4974947;28;45390;-51
2022/06/05 08:24:37;;;;;;;;;4.00;4.00;;;;;22.09;63.39;100669.69;4958475;28;45436;-55
2022/06/05 08:27:04;;;;;;;;;7.75;5.00;;;;;22.12;63.56;100685.84;4976601;28;45311;-55
2022/06/05 08:29:29;;;;;;;;;4.60;4.60;;;;;22.06;63.21;100687.84;4974629;28;46314;-48
2022/06/05 08:31:54;;;;;;;;;5.50;5.00;;;;;22.04;62.73;100693.72;4989389;28;45330;-56
2022/06/05 08:34:21;;;;;;;;;4.75;4.75;;;;;22.03;63.03;100702.41;4990277;28;45365;-57
2022/06/05 08:36:47;;;;;;;;;5.00;5.00;;;;;21.87;63.25;100676.56;4974993;28;45373;-53
2022/06/05 08:42:15;;;;;;;;;6.20;5.00;;;;;21.91;63.31;100708.34;4975133;28;45377;-53
2022/06/05 08:44:42;;;;;;;;;4.40;4.40;;;;;21.70;63.01;100700.09;4975945;28;45367;-51
2022/06/05 08:47:27;;;;;;;;;6.40;3.80;;;;;21.64;63.75;100716.03;4974865;28;45441;-53
2022/06/05 08:49:53;;;;;;;;;4.20;4.20;;;;;21.48;63.27;100718.06;4974365;28;46820;-54
2022/06/05 08:52:24;;;;;;;;;5.40;4.00;;;;;21.49;63.50;100722.53;4975716;28;45334;-56
2022/06/05 08:55:05;;;;;;;;;4.20;3.20;;;;;21.47;63.72;100716.41;4975995;28;45335;-55
2022/06/05 08:57:34;;;;;;;;;5.00;5.00;;;;;21.53;63.30;100711.63;4974928;28;45454;-56
2022/06/05 09:00:16;;;;;;;;;6.40;5.20;;;;;21.55;63.14;100716.94;4974228;28;45692;-54
2022/06/05 09:02:54;;;;;;;;;6.40;4.80;;;;;21.60;63.34;100717.72;4975557;28;45404;-52
2022/06/05 09:05:46;;;;;;;;;7.40;7.00;;;;;21.63;63.46;100713.53;4976056;28;45312;-54
2022/06/05 09:08:23;;;;;;;;;7.00;7.00;;;;;21.56;63.69;100701.84;4966478;28;45379;-54
2022/06/05 09:10:53;;;;;;;;;11.60;8.80;;;;;21.58;63.58;100711.59;4974166;28;46340;-56
2022/06/05 09:13:29;;;;;;;;;7.80;7.80;;;;;21.56;63.76;100719.41;4974088;28;45455;-59
2022/06/05 09:16:05;;;;;;;;;6.00;6.00;;;;;21.10;63.92;100659.06;4975540;28;45430;-57
2022/06/05 09:18:37;;;;;;;;;5.40;5.20;;;;;21.23;64.30;100696.69;4953882;28;45936;-56
2022/06/05 09:21:25;;;;;;;;;6.00;6.00;;;;;21.35;64.30;100729.84;4952089;28;46688;-56
2022/06/05 09:24:18;;;;;;;;;7.60;7.60;;;;;21.36;64.91;100751.06;4972203;28;45470;-57
2022/06/05 09:26:53;;;;;;;;;8.00;8.00;;;;;21.39;65.01;100756.06;4973949;28;45510;-53
2022/06/05 09:29:21;;;;;;;;;7.20;6.80;;;;;21.43;65.22;100750.75;4975250;28;45443;-55
2022/06/05 09:31:52;;;;;;;;;5.60;5.60;;;;;21.30;64.87;100746.63;4988604;28;46479;-57
2022/06/05 09:34:23;;;;;;;;;7.00;7.00;;;;;21.38;64.90;100765.56;4996840;28;45421;-57
2022/06/05 09:37:15;;;;;;;;;7.00;6.00;;;;;21.34;65.09;100761.69;4993598;28;45389;-56
2022/06/05 09:39:51;;;;;;;;;8.40;8.40;;;;;21.24;65.49;100774.53;4991694;28;45352;-56
2022/06/05 09:42:48;;;;;;;;;8.20;7.60;;;;;21.29;65.31;100778.44;4993741;28;46854;-57
2022/06/05 09:45:41;;;;;;;;;7.00;7.00;;;;;21.29;65.57;100776.47;4961718;28;45879;-55
2022/06/05 09:48:15;;;;;;;;;4.40;4.40;;;;;21.22;65.74;100756.41;4973459;28;45821;-58
2022/06/05 09:50:40;;;;;;;;;9.60;9.40;;;;;20.95;65.32;100729.69;4972728;28;45495;-55
2022/06/05 09:53:27;;;;;;;;;9.00;7.50;;;;;21.18;66.55;100778.47;4987760;28;46643;-55
2022/06/05 09:56:14;;;;;;;;;7.80;7.80;;;;;21.14;66.62;100782.94;5019748;28;45499;-53
2022/06/05 09:58:48;;;;;;;;;11.80;11.80;;;;;21.06;66.44;100780.72;4994010;28;45756;-53
2022/06/05 10:01:56;;;;;;;;;6.20;6.20;;;;;21.03;66.30;100789.66;5025890;28;45591;-54
2022/06/05 10:04:21;;;;;;;;;12.40;11.00;;;;;21.02;65.97;100788.00;4924201;28;45868;-57
2022/06/05 10:07:12;;;;;;;;;8.00;8.00;;;;;20.93;65.89;100768.19;4986755;28;45532;-52
2022/06/05 10:09:42;;;;;;;;;9.60;9.60;;;;;21.21;65.57;100793.81;5008029;28;45343;-53
2022/06/05 10:12:27;;;;;;;;;10.00;8.60;;;;;21.33;64.79;100799.06;4992258;28;45585;-52
2022/06/05 10:15:06;;;;;;;;;10.40;10.40;;;;;21.25;64.15;100792.94;5002081;28;46445;-51
2022/06/05 10:17:58;;;;;;;;;10.80;10.80;;;;;21.32;64.51;100802.97;4957082;28;45766;-52
2022/06/05 10:20:23;;;;;;;;;8.00;8.00;;;;;21.39;64.44;100809.94;4965150;28;45569;-55
2022/06/05 10:22:57;;;;;;;;;12.00;12.00;;;;;21.30;63.94;100785.69;4972674;28;45363;-55
2022/06/05 10:25:38;;;;;;;;;11.40;9.00;;;;;21.54;63.96;100813.81;4979535;28;46098;-53
2022/06/05 10:28:12;;;;;;;;;12.40;11.20;;;;;21.57;63.72;100816.03;4978964;28;45757;-58
2022/06/05 10:31:01;;;;;;;;;14.20;12.20;;;;;21.41;63.53;100778.97;4971906;28;45516;-55
2022/06/05 10:33:50;;;;;;;;;11.00;10.80;;;;;21.51;63.69;100800.44;4953520;28;45784;-51
2022/06/05 10:36:16;;;;;;;;;12.20;12.20;;;;;21.12;63.92;100785.16;4952154;28;47030;-57
2022/06/05 10:39:00;;;;;;;;;12.40;12.20;;;;;21.11;64.20;100820.63;4987085;28;45544;-52
2022/06/05 10:41:34;;;;;;;;;9.60;9.40;;;;;21.05;64.64;100812.53;4952299;28;45437;-53
2022/06/05 10:44:11;;;;;;;;;14.60;14.60;;;;;21.22;64.47;100815.84;4952505;28;45788;-53
2022/06/05 10:46:39;;;;;;;;;12.60;11.00;;;;;21.25;64.35;100811.66;4941808;28;46073;-55
2022/06/05 10:49:12;;;;;;;;;14.80;13.20;;;;;21.24;64.52;100808.03;4964901;28;45557;-59
2022/06/05 10:51:51;;;;;;;;;13.40;12.00;;;;;21.16;63.93;100789.06;4951896;28;45690;-58
2022/06/05 10:54:22;;;;;;;;;15.00;13.80;;;;;21.29;63.92;100820.31;4956563;28;45457;-57
2022/06/05 10:57:18;;;;;;;;;17.20;15.60;;;;;21.21;63.95;100797.44;4972229;28;47198;-54
2022/06/05 11:00:02;;;;;;;;;13.40;12.40;;;;;21.37;64.12;100819.72;4958383;28;45438;-56
2022/06/05 11:02:46;;;;;;;;;15.00;13.80;;;;;21.44;63.83;100823.06;4956545;28;45340;-52
2022/06/05 11:05:29;;;;;;;;;16.40;13.20;;;;;21.42;63.79;100830.88;4971775;28;46071;-53
2022/06/05 11:08:09;;;;;;;;;18.80;16.60;;;;;21.37;64.07;100826.16;4976302;28;46559;-52
2022/06/05 11:13:55;;;;;;;;;16.00;15.80;;;;;21.19;64.47;100835.13;4976198;28;45424;-53
2022/06/05 11:16:26;;;;;;;;;16.60;16.20;;;;;21.08;64.47;100803.63;4929731;28;47810;-51
2022/06/05 11:19:10;;;;;;;;;14.40;14.40;;;;;21.32;64.13;100837.31;4955608;28;46473;-52
2022/06/05 11:21:35;;;;;;;;;15.20;14.80;;;;;21.19;64.10;100791.28;4963271;28;45426;-52
2022/06/05 11:24:01;;;;;;;;;15.75;13.50;;;;;21.44;63.38;100816.66;4991784;28;45746;-52
2022/06/05 11:26:48;;;;;;;;;15.75;15.25;;;;;21.37;63.53;100802.97;4980520;28;45962;-49
2022/06/05 11:29:28;;;;;;;;;15.00;15.00;;;;;21.50;63.36;100824.72;4972104;28;46434;-51
2022/06/05 11:32:10;;;;;;;;;16.20;15.40;;;;;21.46;63.18;100815.22;4981482;28;45426;-53
2022/06/05 11:34:45;;;;;;;;;15.00;13.40;;;;;21.30;63.09;100794.06;5010235;28;45844;-52
2022/06/05 11:37:31;;;;;;;;;18.00;16.00;;;;;21.25;63.33;100822.84;4973565;28;45421;-52
2022/06/05 11:40:45;;;;;;;;;15.00;15.00;;;;;21.15;63.81;100836.78;4966264;28;45460;-53
2022/06/05 11:43:36;;;;;;;;;16.80;16.40;;;;;21.07;63.77;100847.41;4959572;28;45499;-50
2022/06/05 11:46:29;;;;;;;;;16.00;15.80;;;;;21.05;64.23;100837.63;4935853;28;45771;-50